sensor_id;sensor_type;location;lat;lon;timestamp;pressure;altitude;pressure_sealevel;temperature;humidity
51926;BME280;37952;51.938;15.480;2022-11-15T00:01:25;99823.92;;;6.78;77.14
51926;BME280;37952;51.938;15.480;2022-11-15T00:04:28;99822.36;;;6.77;77.05
51926;BME280;37952;51.938;15.480;2022-11-15T00:07:31;99817.85;;;6.77;77.13
51926;BME280;37952;51.938;15.480;2022-11-15T00:10:56;99813.17;;;6.75;77.19
51926;BME280;37952;51.938;15.480;2022-11-15T00:13:59;99811.17;;;6.77;77.10
51926;BME280;37952;51.938;15.480;2022-11-15T00:17:05;99809.73;;;6.78;77.07
51926;BME280;37952;51.938;15.480;2022-11-15T00:20:08;99809.21;;;6.82;77.15
51926;BME280;37952;51.938;15.480;2022-11-15T00:23:11;99806.85;;;6.88;77.31
51926;BME280;37952;51.938;15.480;2022-11-15T00:26:15;99805.19;;;6.94;77.22
51926;BME280;37952;51.938;15.480;2022-11-15T00:29:18;99808.96;;;6.95;76.99
51926;BME280;37952;51.938;15.480;2022-11-15T00:32:21;99801.09;;;6.95;77.00
51926;BME280;37952;51.938;15.480;2022-11-15T00:35:24;99796.21;;;6.98;77.08
51926;BME280;37952;51.938;15.480;2022-11-15T00:38:35;99792.76;;;7.05;77.25
51926;BME280;37952;51.938;15.480;2022-11-15T00:41:38;99797.02;;;7.08;77.11
51926;BME280;37952;51.938;15.480;2022-11-15T00:44:41;99796.35;;;7.07;77.20
51926;BME280;37952;51.938;15.480;2022-11-15T00:47:50;99796.55;;;7.03;77.17
51926;BME280;37952;51.938;15.480;2022-11-15T00:50:54;99798.54;;;7.02;77.12
51926;BME280;37952;51.938;15.480;2022-11-15T00:57:39;99798.74;;;7.09;77.49
51926;BME280;37952;51.938;15.480;2022-11-15T01:00:42;99795.75;;;7.13;77.25
51926;BME280;37952;51.938;15.480;2022-11-15T01:03:45;99788.27;;;7.19;76.98
51926;BME280;37952;51.938;15.480;2022-11-15T01:06:48;99787.12;;;7.25;76.98
51926;BME280;37952;51.938;15.480;2022-11-15T01:10:19;99784.86;;;7.29;76.92
51926;BME280;37952;51.938;15.480;2022-11-15T01:13:23;99782.38;;;7.33;77.12
51926;BME280;37952;51.938;15.480;2022-11-15T01:16:26;99770.52;;;7.31;77.05
51926;BME280;37952;51.938;15.480;2022-11-15T01:19:29;99776.16;;;7.38;76.82
51926;BME280;37952;51.938;15.480;2022-11-15T01:22:32;99773.79;;;7.44;76.91
51926;BME280;37952;51.938;15.480;2022-11-15T01:25:35;99769.23;;;7.48;76.98
51926;BME280;37952;51.938;15.480;2022-11-15T01:28:39;99768.13;;;7.53;76.90
51926;BME280;37952;51.938;15.480;2022-11-15T01:31:43;99769.35;;;7.56;76.66
51926;BME280;37952;51.938;15.480;2022-11-15T01:34:46;99763.52;;;7.61;76.68
51926;BME280;37952;51.938;15.480;2022-11-15T01:37:49;99756.31;;;7.65;76.74
51926;BME280;37952;51.938;15.480;2022-11-15T01:40:52;99749.23;;;7.69;76.51
51926;BME280;37952;51.938;15.480;2022-11-15T01:50:30;99738.49;;;7.78;76.25
51926;BME280;37952;51.938;15.480;2022-11-15T01:53:37;99735.54;;;7.81;76.07
51926;BME280;37952;51.938;15.480;2022-11-15T01:56:48;99732.17;;;7.82;76.29
51926;BME280;37952;51.938;15.480;2022-11-15T01:59:53;99730.52;;;7.83;76.28
51926;BME280;37952;51.938;15.480;2022-11-15T02:02:57;99726.05;;;7.81;76.08
51926;BME280;37952;51.938;15.480;2022-11-15T02:06:02;99714.19;;;7.76;76.17
51926;BME280;37952;51.938;15.480;2022-11-15T02:09:06;99716.16;;;7.79;76.15
51926;BME280;37952;51.938;15.480;2022-11-15T02:12:10;99708.71;;;7.80;76.25
51926;BME280;37952;51.938;15.480;2022-11-15T02:15:15;99707.64;;;7.78;75.97
51926;BME280;37952;51.938;15.480;2022-11-15T02:18:32;99705.51;;;7.74;75.99
51926;BME280;37952;51.938;15.480;2022-11-15T02:32:00;99697.34;;;7.72;76.19
51926;BME280;37952;51.938;15.480;2022-11-15T02:38:42;99687.23;;;7.68;76.29
51926;BME280;37952;51.938;15.480;2022-11-15T02:42:02;99687.69;;;7.69;76.24
51926;BME280;37952;51.938;15.480;2022-11-15T02:45:09;99693.42;;;7.70;76.31
51926;BME280;37952;51.938;15.480;2022-11-15T02:48:16;99684.84;;;7.67;76.18
51926;BME280;37952;51.938;15.480;2022-11-15T02:51:21;99681.02;;;7.62;76.34
51926;BME280;37952;51.938;15.480;2022-11-15T02:54:53;99682.17;;;7.64;76.40
51926;BME280;37952;51.938;15.480;2022-11-15T03:04:53;99675.67;;;7.53;76.38
51926;BME280;37952;51.938;15.480;2022-11-15T03:08:19;99674.64;;;7.49;76.22
51926;BME280;37952;51.938;15.480;2022-11-15T03:11:25;99673.26;;;7.49;76.40
51926;BME280;37952;51.938;15.480;2022-11-15T03:14:34;99673.17;;;7.47;76.35
51926;BME280;37952;51.938;15.480;2022-11-15T03:17:49;99667.22;;;7.43;76.39
51926;BME280;37952;51.938;15.480;2022-11-15T03:20:55;99673.12;;;7.41;76.58
51926;BME280;37952;51.938;15.480;2022-11-15T03:24:03;99671.34;;;7.42;76.48
51926;BME280;37952;51.938;15.480;2022-11-15T03:27:09;99670.54;;;7.40;76.36
51926;BME280;37952;51.938;15.480;2022-11-15T03:30:15;99669.02;;;7.35;76.60
51926;BME280;37952;51.938;15.480;2022-11-15T03:33:21;99664.67;;;7.34;76.58
51926;BME280;37952;51.938;15.480;2022-11-15T03:36:25;99663.89;;;7.32;76.71
51926;BME280;37952;51.938;15.480;2022-11-15T03:39:29;99661.11;;;7.35;76.76
51926;BME280;37952;51.938;15.480;2022-11-15T03:42:42;99656.86;;;7.36;76.80
51926;BME280;37952;51.938;15.480;2022-11-15T03:45:58;99649.57;;;7.34;76.81
51926;BME280;37952;51.938;15.480;2022-11-15T03:49:14;99651.81;;;7.39;76.86
51926;BME280;37952;51.938;15.480;2022-11-15T03:52:20;99654.78;;;7.39;76.78
51926;BME280;37952;51.938;15.480;2022-11-15T03:55:24;99656.34;;;7.39;76.74
51926;BME280;37952;51.938;15.480;2022-11-15T03:58:26;99653.68;;;7.40;76.95
51926;BME280;37952;51.938;15.480;2022-11-15T04:01:29;99655.55;;;7.45;76.86
51926;BME280;37952;51.938;15.480;2022-11-15T04:04:33;99657.75;;;7.46;76.78
51926;BME280;37952;51.938;15.480;2022-11-15T04:07:36;99654.67;;;7.45;76.71
51926;BME280;37952;51.938;15.480;2022-11-15T04:10:41;99651.02;;;7.44;76.83
51926;BME280;37952;51.938;15.480;2022-11-15T04:13:44;99652.50;;;7.46;76.62
51926;BME280;37952;51.938;15.480;2022-11-15T04:16:47;99656.69;;;7.46;76.97
51926;BME280;37952;51.938;15.480;2022-11-15T04:19:53;99653.54;;;7.47;76.79
51926;BME280;37952;51.938;15.480;2022-11-15T04:23:20;99648.45;;;7.47;76.97
51926;BME280;37952;51.938;15.480;2022-11-15T04:26:42;99646.22;;;7.45;77.07
51926;BME280;37952;51.938;15.480;2022-11-15T04:29:46;99637.13;;;7.48;76.94
51926;BME280;37952;51.938;15.480;2022-11-15T04:32:49;99636.59;;;7.52;77.10
51926;BME280;37952;51.938;15.480;2022-11-15T04:35:52;99640.02;;;7.47;77.13
51926;BME280;37952;51.938;15.480;2022-11-15T04:39:13;99629.73;;;7.46;77.04
51926;BME280;37952;51.938;15.480;2022-11-15T04:42:16;99630.16;;;7.47;77.16
51926;BME280;37952;51.938;15.480;2022-11-15T04:45:19;99632.27;;;7.55;76.94
51926;BME280;37952;51.938;15.480;2022-11-15T04:48:22;99631.50;;;7.56;76.78
51926;BME280;37952;51.938;15.480;2022-11-15T04:51:26;99629.30;;;7.54;76.82
51926;BME280;37952;51.938;15.480;2022-11-15T04:54:29;99627.50;;;7.56;76.88
51926;BME280;37952;51.938;15.480;2022-11-15T04:57:32;99631.77;;;7.55;76.89
51926;BME280;37952;51.938;15.480;2022-11-15T05:00:35;99626.90;;;7.53;76.80
51926;BME280;37952;51.938;15.480;2022-11-15T05:03:43;99623.48;;;7.55;76.54
51926;BME280;37952;51.938;15.480;2022-11-15T05:07:05;99619.23;;;7.56;76.67
51926;BME280;37952;51.938;15.480;2022-11-15T05:10:08;99617.30;;;7.59;76.70
51926;BME280;37952;51.938;15.480;2022-11-15T05:13:12;99617.88;;;7.58;76.55
51926;BME280;37952;51.938;15.480;2022-11-15T05:16:14;99621.91;;;7.55;76.62
51926;BME280;37952;51.938;15.480;2022-11-15T05:19:17;99620.80;;;7.53;76.81
51926;BME280;37952;51.938;15.480;2022-11-15T05:22:21;99617.67;;;7.55;76.76
51926;BME280;37952;51.938;15.480;2022-11-15T05:25:25;99620.79;;;7.53;76.64
51926;BME280;37952;51.938;15.480;2022-11-15T05:28:28;99615.41;;;7.52;76.65
51926;BME280;37952;51.938;15.480;2022-11-15T05:31:31;99616.54;;;7.54;76.83
51926;BME280;37952;51.938;15.480;2022-11-15T05:34:34;99622.50;;;7.54;76.78
51926;BME280;37952;51.938;15.480;2022-11-15T05:37:37;99621.55;;;7.52;76.59
51926;BME280;37952;51.938;15.480;2022-11-15T05:40:40;99621.58;;;7.48;76.76
51926;BME280;37952;51.938;15.480;2022-11-15T05:43:44;99615.39;;;7.48;76.81
51926;BME280;37952;51.938;15.480;2022-11-15T05:46:50;99616.93;;;7.49;76.71
51926;BME280;37952;51.938;15.480;2022-11-15T05:49:56;99619.34;;;7.46;76.60
51926;BME280;37952;51.938;15.480;2022-11-15T05:53:01;99619.38;;;7.46;76.59
51926;BME280;37952;51.938;15.480;2022-11-15T05:56:09;99614.48;;;7.46;76.70
51926;BME280;37952;51.938;15.480;2022-11-15T05:59:12;99610.93;;;7.50;76.67
51926;BME280;37952;51.938;15.480;2022-11-15T06:02:15;99607.58;;;7.50;76.50
51926;BME280;37952;51.938;15.480;2022-11-15T06:05:18;99609.35;;;7.50;76.57
51926;BME280;37952;51.938;15.480;2022-11-15T06:08:21;99618.70;;;7.53;76.64
51926;BME280;37952;51.938;15.480;2022-11-15T06:11:28;99619.38;;;7.53;76.74
51926;BME280;37952;51.938;15.480;2022-11-15T06:14:30;99616.66;;;7.51;76.46
51926;BME280;37952;51.938;15.480;2022-11-15T06:17:33;99612.73;;;7.45;76.40
51926;BME280;37952;51.938;15.480;2022-11-15T06:20:36;99613.32;;;7.41;76.72
51926;BME280;37952;51.938;15.480;2022-11-15T06:23:39;99611.27;;;7.43;76.77
51926;BME280;37952;51.938;15.480;2022-11-15T06:26:42;99614.22;;;7.44;76.85
51926;BME280;37952;51.938;15.480;2022-11-15T06:29:45;99612.23;;;7.41;76.57
51926;BME280;37952;51.938;15.480;2022-11-15T06:32:48;99623.34;;;7.36;76.81
51926;BME280;37952;51.938;15.480;2022-11-15T06:35:51;99619.85;;;7.36;76.84
51926;BME280;37952;51.938;15.480;2022-11-15T06:39:18;99622.83;;;7.40;76.95
51926;BME280;37952;51.938;15.480;2022-11-15T06:42:21;99624.79;;;7.43;76.60
51926;BME280;37952;51.938;15.480;2022-11-15T06:45:26;99625.83;;;7.47;76.61
51926;BME280;37952;51.938;15.480;2022-11-15T06:48:29;99621.67;;;7.46;76.84
51926;BME280;37952;51.938;15.480;2022-11-15T06:51:33;99623.29;;;7.48;76.84
51926;BME280;37952;51.938;15.480;2022-11-15T06:54:35;99625.29;;;7.47;76.75
51926;BME280;37952;51.938;15.480;2022-11-15T06:57:46;99624.33;;;7.48;76.76
51926;BME280;37952;51.938;15.480;2022-11-15T07:00:49;99628.39;;;7.55;76.83
51926;BME280;37952;51.938;15.480;2022-11-15T07:03:52;99631.76;;;7.61;76.61
51926;BME280;37952;51.938;15.480;2022-11-15T07:06:55;99635.78;;;7.65;76.43
51926;BME280;37952;51.938;15.480;2022-11-15T07:09:58;99630.24;;;7.67;76.44
51926;BME280;37952;51.938;15.480;2022-11-15T07:13:01;99625.50;;;7.67;76.55
51926;BME280;37952;51.938;15.480;2022-11-15T07:16:06;99632.19;;;7.67;76.40
51926;BME280;37952;51.938;15.480;2022-11-15T07:19:09;99635.35;;;7.64;76.42
51926;BME280;37952;51.938;15.480;2022-11-15T07:22:12;99634.84;;;7.59;76.32
51926;BME280;37952;51.938;15.480;2022-11-15T07:25:15;99633.45;;;7.59;76.46
51926;BME280;37952;51.938;15.480;2022-11-15T07:28:19;99631.06;;;7.65;76.49
51926;BME280;37952;51.938;15.480;2022-11-15T07:31:22;99630.20;;;7.68;76.35
51926;BME280;37952;51.938;15.480;2022-11-15T07:34:25;99630.14;;;7.69;76.36
51926;BME280;37952;51.938;15.480;2022-11-15T07:37:27;99635.84;;;7.68;76.17
51926;BME280;37952;51.938;15.480;2022-11-15T07:40:31;99632.04;;;7.70;76.20
51926;BME280;37952;51.938;15.480;2022-11-15T07:43:34;99626.02;;;7.74;76.26
51926;BME280;37952;51.938;15.480;2022-11-15T07:46:38;99614.82;;;7.74;76.38
51926;BME280;37952;51.938;15.480;2022-11-15T07:49:40;99619.83;;;7.83;76.05
51926;BME280;37952;51.938;15.480;2022-11-15T07:52:44;99621.23;;;7.86;75.99
51926;BME280;37952;51.938;15.480;2022-11-15T07:55:47;99618.85;;;7.91;75.96
51926;BME280;37952;51.938;15.480;2022-11-15T07:58:50;99622.80;;;7.96;76.22
51926;BME280;37952;51.938;15.480;2022-11-15T08:01:53;99627.07;;;8.02;75.83
51926;BME280;37952;51.938;15.480;2022-11-15T08:04:56;99623.41;;;8.02;75.78
51926;BME280;37952;51.938;15.480;2022-11-15T08:07:59;99623.52;;;8.03;75.80
51926;BME280;37952;51.938;15.480;2022-11-15T08:11:02;99620.77;;;8.09;75.90
51926;BME280;37952;51.938;15.480;2022-11-15T08:14:05;99612.79;;;8.14;75.84
51926;BME280;37952;51.938;15.480;2022-11-15T08:17:08;99612.76;;;8.17;75.69
51926;BME280;37952;51.938;15.480;2022-11-15T08:20:12;99607.12;;;8.18;75.51
51926;BME280;37952;51.938;15.480;2022-11-15T08:23:14;99602.57;;;8.21;75.84
51926;BME280;37952;51.938;15.480;2022-11-15T08:26:17;99603.28;;;8.24;75.78
51926;BME280;37952;51.938;15.480;2022-11-15T08:29:20;99600.48;;;8.31;75.84
51926;BME280;37952;51.938;15.480;2022-11-15T08:32:23;99596.84;;;8.36;75.44
51926;BME280;37952;51.938;15.480;2022-11-15T08:35:28;99593.10;;;8.40;75.52
51926;BME280;37952;51.938;15.480;2022-11-15T08:38:32;99588.42;;;8.42;75.60
51926;BME280;37952;51.938;15.480;2022-11-15T08:41:37;99595.70;;;8.51;75.47
51926;BME280;37952;51.938;15.480;2022-11-15T08:44:40;99599.75;;;8.58;75.45
51926;BME280;37952;51.938;15.480;2022-11-15T08:47:43;99595.76;;;8.60;75.24
51926;BME280;37952;51.938;15.480;2022-11-15T08:51:13;99596.00;;;8.62;75.14
51926;BME280;37952;51.938;15.480;2022-11-15T08:54:16;99598.05;;;8.66;75.22
51926;BME280;37952;51.938;15.480;2022-11-15T08:57:19;99591.19;;;8.73;75.28
51926;BME280;37952;51.938;15.480;2022-11-15T09:00:22;99588.81;;;8.81;75.34
51926;BME280;37952;51.938;15.480;2022-11-15T09:03:25;99594.48;;;8.86;75.18
51926;BME280;37952;51.938;15.480;2022-11-15T09:06:28;99592.40;;;8.89;74.82
51926;BME280;37952;51.938;15.480;2022-11-15T09:09:31;99593.08;;;8.93;74.99
51926;BME280;37952;51.938;15.480;2022-11-15T09:12:34;99589.85;;;9.00;75.00
51926;BME280;37952;51.938;15.480;2022-11-15T09:15:37;99598.42;;;9.07;74.73
51926;BME280;37952;51.938;15.480;2022-11-15T09:18:41;99589.11;;;9.10;74.62
51926;BME280;37952;51.938;15.480;2022-11-15T09:21:44;99596.67;;;9.16;74.48
51926;BME280;37952;51.938;15.480;2022-11-15T09:24:47;99599.70;;;9.22;74.63
51926;BME280;37952;51.938;15.480;2022-11-15T09:27:50;99597.73;;;9.29;74.39
51926;BME280;37952;51.938;15.480;2022-11-15T09:31:01;99596.64;;;9.35;74.45
51926;BME280;37952;51.938;15.480;2022-11-15T09:34:04;99595.40;;;9.42;74.14
51926;BME280;37952;51.938;15.480;2022-11-15T09:37:07;99593.38;;;9.46;73.56
51926;BME280;37952;51.938;15.480;2022-11-15T09:40:14;99588.98;;;9.56;73.90
51926;BME280;37952;51.938;15.480;2022-11-15T09:43:37;99586.17;;;9.64;73.96
51926;BME280;37952;51.938;15.480;2022-11-15T09:50:14;99582.63;;;9.77;73.93
51926;BME280;37952;51.938;15.480;2022-11-15T09:53:43;99579.23;;;9.80;73.46
51926;BME280;37952;51.938;15.480;2022-11-15T09:57:11;99578.67;;;9.87;73.43
51926;BME280;37952;51.938;15.480;2022-11-15T10:00:32;99576.86;;;9.93;73.66
51926;BME280;37952;51.938;15.480;2022-11-15T10:03:55;99574.29;;;10.01;73.43
51926;BME280;37952;51.938;15.480;2022-11-15T10:07:06;99569.80;;;10.08;73.30
51926;BME280;37952;51.938;15.480;2022-11-15T10:10:29;99565.99;;;10.16;72.95
51926;BME280;37952;51.938;15.480;2022-11-15T10:13:35;99564.13;;;10.23;72.79
51926;BME280;37952;51.938;15.480;2022-11-15T10:20:10;99559.24;;;10.37;72.23
51926;BME280;37952;51.938;15.480;2022-11-15T10:23:18;99556.35;;;10.47;72.71
51926;BME280;37952;51.938;15.480;2022-11-15T10:26:23;99555.39;;;10.56;72.80
51926;BME280;37952;51.938;15.480;2022-11-15T10:29:26;99545.22;;;10.64;72.62
51926;BME280;37952;51.938;15.480;2022-11-15T10:32:29;99540.25;;;10.70;72.54
51926;BME280;37952;51.938;15.480;2022-11-15T10:35:35;99536.71;;;10.76;72.08
51926;BME280;37952;51.938;15.480;2022-11-15T10:41:51;99528.55;;;10.96;72.40
51926;BME280;37952;51.938;15.480;2022-11-15T10:44:54;99527.52;;;11.06;72.29
51926;BME280;37952;51.938;15.480;2022-11-15T10:51:26;99518.79;;;11.21;72.04
51926;BME280;37952;51.938;15.480;2022-11-15T10:54:39;99520.58;;;11.28;71.95
51926;BME280;37952;51.938;15.480;2022-11-15T10:57:53;99516.42;;;11.37;71.85
51926;BME280;37952;51.938;15.480;2022-11-15T11:01:08;99508.95;;;11.47;71.91
51926;BME280;37952;51.938;15.480;2022-11-15T11:04:12;99511.91;;;11.55;71.81
51926;BME280;37952;51.938;15.480;2022-11-15T11:07:23;99507.91;;;11.62;71.81
51926;BME280;37952;51.938;15.480;2022-11-15T11:10:27;99501.14;;;11.71;71.69
51926;BME280;37952;51.938;15.480;2022-11-15T11:13:50;99500.21;;;11.81;71.65
51926;BME280;37952;51.938;15.480;2022-11-15T11:17:31;99497.59;;;11.91;71.50
51926;BME280;37952;51.938;15.480;2022-11-15T11:20:43;99491.65;;;12.00;71.57
51926;BME280;37952;51.938;15.480;2022-11-15T11:24:13;99490.24;;;12.08;71.18
51926;BME280;37952;51.938;15.480;2022-11-15T11:27:24;99484.85;;;12.14;71.10
51926;BME280;37952;51.938;15.480;2022-11-15T11:34:09;99479.34;;;12.30;70.23
51926;BME280;37952;51.938;15.480;2022-11-15T11:37:24;99474.02;;;12.35;70.55
51926;BME280;37952;51.938;15.480;2022-11-15T11:40:43;99468.58;;;12.44;70.59
51926;BME280;37952;51.938;15.480;2022-11-15T11:44:32;99462.30;;;12.55;70.46
51926;BME280;37952;51.938;15.480;2022-11-15T11:47:46;99458.00;;;12.68;70.20
51926;BME280;37952;51.938;15.480;2022-11-15T11:50:53;99451.80;;;12.75;69.97
51926;BME280;37952;51.938;15.480;2022-11-15T11:54:13;99453.90;;;12.88;69.66
51926;BME280;37952;51.938;15.480;2022-11-15T11:58:16;99451.63;;;12.99;69.58
51926;BME280;37952;51.938;15.480;2022-11-15T12:00:55;99449.95;;;13.10;69.38
51926;BME280;37952;51.938;15.480;2022-11-15T12:04:21;99451.70;;;13.19;69.08
51926;BME280;37952;51.938;15.480;2022-11-15T12:07:34;99450.16;;;13.28;68.99
51926;BME280;37952;51.938;15.480;2022-11-15T12:10:40;99440.53;;;13.36;68.79
51926;BME280;37952;51.938;15.480;2022-11-15T12:13:53;99433.75;;;13.44;68.78
51926;BME280;37952;51.938;15.480;2022-11-15T12:16:57;99438.67;;;13.53;68.28
51926;BME280;37952;51.938;15.480;2022-11-15T12:20:14;99437.45;;;13.60;67.95
51926;BME280;37952;51.938;15.480;2022-11-15T12:23:23;99435.45;;;13.66;68.12
51926;BME280;37952;51.938;15.480;2022-11-15T12:26:41;99432.16;;;13.71;67.96
51926;BME280;37952;51.938;15.480;2022-11-15T12:29:49;99425.96;;;13.81;68.15
51926;BME280;37952;51.938;15.480;2022-11-15T12:32:55;99419.17;;;13.92;67.99
51926;BME280;37952;51.938;15.480;2022-11-15T12:36:03;99416.77;;;14.03;67.86
51926;BME280;37952;51.938;15.480;2022-11-15T12:39:11;99419.98;;;14.11;67.69
51926;BME280;37952;51.938;15.480;2022-11-15T12:45:30;99414.25;;;14.29;67.69
51926;BME280;37952;51.938;15.480;2022-11-15T12:54:53;99408.17;;;14.54;67.22
51926;BME280;37952;51.938;15.480;2022-11-15T12:58:42;99403.48;;;14.59;67.00
51926;BME280;37952;51.938;15.480;2022-11-15T13:04:53;99397.10;;;14.61;66.87
51926;BME280;37952;51.938;15.480;2022-11-15T13:07:57;99397.20;;;14.49;66.72
51926;BME280;37952;51.938;15.480;2022-11-15T13:17:54;99388.96;;;13.98;67.05
51926;BME280;37952;51.938;15.480;2022-11-15T13:20:58;99383.08;;;13.85;67.17
51926;BME280;37952;51.938;15.480;2022-11-15T13:24:23;99377.77;;;13.74;67.20
51926;BME280;37952;51.938;15.480;2022-11-15T13:27:26;99377.11;;;13.62;67.25
51926;BME280;37952;51.938;15.480;2022-11-15T13:30:30;99373.52;;;13.51;67.33
51926;BME280;37952;51.938;15.480;2022-11-15T13:33:35;99373.48;;;13.42;67.54
51926;BME280;37952;51.938;15.480;2022-11-15T13:36:39;99373.59;;;13.36;67.64
51926;BME280;37952;51.938;15.480;2022-11-15T13:39:43;99371.73;;;13.30;67.60
51926;BME280;37952;51.938;15.480;2022-11-15T13:42:46;99371.64;;;13.25;67.70
51926;BME280;37952;51.938;15.480;2022-11-15T13:46:18;99371.94;;;13.19;67.67
51926;BME280;37952;51.938;15.480;2022-11-15T13:49:29;99361.63;;;13.10;67.89
51926;BME280;37952;51.938;15.480;2022-11-15T13:57:41;99358.84;;;13.00;68.31
51926;BME280;37952;51.938;15.480;2022-11-15T14:00:45;99354.63;;;12.98;68.30
51926;BME280;37952;51.938;15.480;2022-11-15T14:04:00;99351.49;;;12.92;68.24
51926;BME280;37952;51.938;15.480;2022-11-15T14:07:03;99347.95;;;12.85;68.26
51926;BME280;37952;51.938;15.480;2022-11-15T14:13:31;99351.73;;;12.75;68.52
51926;BME280;37952;51.938;15.480;2022-11-15T14:16:43;99347.78;;;12.69;68.43
51926;BME280;37952;51.938;15.480;2022-11-15T14:19:48;99356.73;;;12.68;68.46
51926;BME280;37952;51.938;15.480;2022-11-15T14:22:56;99357.16;;;12.61;68.39
51926;BME280;37952;51.938;15.480;2022-11-15T14:25:59;99360.22;;;12.59;68.61
51926;BME280;37952;51.938;15.480;2022-11-15T14:29:35;99358.65;;;12.56;68.75
51926;BME280;37952;51.938;15.480;2022-11-15T14:32:47;99352.95;;;12.52;68.67
51926;BME280;37952;51.938;15.480;2022-11-15T14:35:53;99350.58;;;12.48;68.69
51926;BME280;37952;51.938;15.480;2022-11-15T14:38:58;99345.30;;;12.43;68.77
51926;BME280;37952;51.938;15.480;2022-11-15T14:42:01;99344.59;;;12.36;68.72
51926;BME280;37952;51.938;15.480;2022-11-15T14:45:14;99341.28;;;12.30;68.97
51926;BME280;37952;51.938;15.480;2022-11-15T14:48:17;99335.66;;;12.25;69.07
51926;BME280;37952;51.938;15.480;2022-11-15T14:51:20;99331.58;;;12.23;69.02
51926;BME280;37952;51.938;15.480;2022-11-15T14:54:23;99329.19;;;12.20;69.02
51926;BME280;37952;51.938;15.480;2022-11-15T14:57:26;99326.54;;;12.14;69.00
51926;BME280;37952;51.938;15.480;2022-11-15T15:00:31;99326.95;;;12.09;69.00
51926;BME280;37952;51.938;15.480;2022-11-15T15:03:37;99323.79;;;12.03;69.24
51926;BME280;37952;51.938;15.480;2022-11-15T15:06:39;99326.63;;;12.01;69.30
51926;BME280;37952;51.938;15.480;2022-11-15T15:09:43;99328.67;;;11.97;69.37
51926;BME280;37952;51.938;15.480;2022-11-15T15:12:47;99330.05;;;11.93;69.32
51926;BME280;37952;51.938;15.480;2022-11-15T15:15:51;99324.04;;;11.88;69.34
51926;BME280;37952;51.938;15.480;2022-11-15T15:18:55;99322.63;;;11.83;69.32
51926;BME280;37952;51.938;15.480;2022-11-15T15:21:58;99324.25;;;11.78;69.58
51926;BME280;37952;51.938;15.480;2022-11-15T15:25:01;99316.31;;;11.75;69.63
51926;BME280;37952;51.938;15.480;2022-11-15T15:28:03;99308.06;;;11.72;69.61
51926;BME280;37952;51.938;15.480;2022-11-15T15:31:10;99309.67;;;11.67;69.67
51926;BME280;37952;51.938;15.480;2022-11-15T15:34:13;99297.92;;;11.58;69.73
51926;BME280;37952;51.938;15.480;2022-11-15T15:37:25;99300.77;;;11.55;69.68
51926;BME280;37952;51.938;15.480;2022-11-15T15:40:32;99295.25;;;11.49;69.86
51926;BME280;37952;51.938;15.480;2022-11-15T15:43:35;99297.20;;;11.44;70.08
51926;BME280;37952;51.938;15.480;2022-11-15T15:46:38;99295.50;;;11.40;70.09
51926;BME280;37952;51.938;15.480;2022-11-15T15:49:41;99297.02;;;11.36;70.15
51926;BME280;37952;51.938;15.480;2022-11-15T15:52:44;99293.30;;;11.34;70.21
51926;BME280;37952;51.938;15.480;2022-11-15T15:55:47;99293.63;;;11.29;70.12
51926;BME280;37952;51.938;15.480;2022-11-15T15:58:51;99294.52;;;11.27;70.41
51926;BME280;37952;51.938;15.480;2022-11-15T16:01:55;99293.68;;;11.26;70.59
51926;BME280;37952;51.938;15.480;2022-11-15T16:04:59;99293.60;;;11.25;70.55
51926;BME280;37952;51.938;15.480;2022-11-15T16:08:02;99283.02;;;11.17;70.56
51926;BME280;37952;51.938;15.480;2022-11-15T16:11:05;99284.98;;;11.22;70.47
51926;BME280;37952;51.938;15.480;2022-11-15T16:14:09;99292.80;;;11.18;70.45
51926;BME280;37952;51.938;15.480;2022-11-15T16:17:17;99294.00;;;11.16;70.70
51926;BME280;37952;51.938;15.480;2022-11-15T16:23:33;99290.15;;;11.11;70.92
51926;BME280;37952;51.938;15.480;2022-11-15T16:26:38;99285.99;;;11.10;70.87
51926;BME280;37952;51.938;15.480;2022-11-15T16:29:41;99282.23;;;11.05;70.95
51926;BME280;37952;51.938;15.480;2022-11-15T16:32:44;99283.00;;;11.02;70.99
51926;BME280;37952;51.938;15.480;2022-11-15T16:35:48;99270.15;;;10.94;71.12
51926;BME280;37952;51.938;15.480;2022-11-15T16:38:52;99272.91;;;10.97;71.25
51926;BME280;37952;51.938;15.480;2022-11-15T16:41:58;99279.17;;;11.01;71.23
51926;BME280;37952;51.938;15.480;2022-11-15T16:45:04;99276.88;;;10.99;71.14
51926;BME280;37952;51.938;15.480;2022-11-15T16:48:22;99276.16;;;10.99;71.27
51926;BME280;37952;51.938;15.480;2022-11-15T16:51:27;99276.41;;;10.95;71.17
51926;BME280;37952;51.938;15.480;2022-11-15T16:54:30;99275.14;;;10.93;71.18
51926;BME280;37952;51.938;15.480;2022-11-15T16:57:34;99275.63;;;10.94;71.40
51926;BME280;37952;51.938;15.480;2022-11-15T17:00:38;99270.05;;;10.93;71.32
51926;BME280;37952;51.938;15.480;2022-11-15T17:03:43;99267.71;;;10.91;71.23
51926;BME280;37952;51.938;15.480;2022-11-15T17:07:13;99270.94;;;10.87;71.21
51926;BME280;37952;51.938;15.480;2022-11-15T17:10:23;99270.69;;;10.83;71.42
51926;BME280;37952;51.938;15.480;2022-11-15T17:13:27;99266.80;;;10.81;71.41
51926;BME280;37952;51.938;15.480;2022-11-15T17:16:30;99269.73;;;10.79;71.41
51926;BME280;37952;51.938;15.480;2022-11-15T17:19:33;99268.16;;;10.74;71.36
51926;BME280;37952;51.938;15.480;2022-11-15T17:22:36;99273.31;;;10.74;71.33
51926;BME280;37952;51.938;15.480;2022-11-15T17:25:39;99273.72;;;10.73;71.51
51926;BME280;37952;51.938;15.480;2022-11-15T17:28:43;99271.52;;;10.74;71.63
51926;BME280;37952;51.938;15.480;2022-11-15T17:31:45;99273.51;;;10.73;71.60
51926;BME280;37952;51.938;15.480;2022-11-15T17:34:48;99270.62;;;10.72;71.53
51926;BME280;37952;51.938;15.480;2022-11-15T17:37:51;99274.77;;;10.68;71.49
51926;BME280;37952;51.938;15.480;2022-11-15T17:41:03;99270.77;;;10.64;71.58
51926;BME280;37952;51.938;15.480;2022-11-15T17:44:06;99277.25;;;10.60;71.64